East Dennis, MA (02641)

8:25 PM EDT on July 30, 2016 (GMT -0400)
Scargo Hill Dennis MA | | Change Station

Elev 133 ft 41.74 °N, 70.18 °W | Updated 0 second ago

Overcast
Overcast
73.4 °F
Feels Like 73.4 °F
N
0.7
Wind Variable Wind from SE
Gusts 3.8 mph

Today
High -- | Low -- °F
--% Chance of Precip.
Yesterday
High -- | Low -- °F
Precip. -- in
Pressure 30.05 in
Visibility 9.0 miles
Clouds Overcast 800 ft
Dew Point 73 °F
Humidity 99%
Rainfall 0.00 in
Snow Depth Not available.
5:33 AM 8:00 PM
Waning Crescent, 10% visible
METAR KHYA 302356Z 21006KT 9SM OVC008 22/20 A3005 RMK AO2 SLPNO T02220200 10261 20222 53012
Pressure 30.05 in
Visibility 9.0 miles
Clouds Overcast 800 ft
Dew Point 73 °F
Humidity 99%
Rainfall 0.00 in
Snow Depth Not available.
5:33 AM 8:00 PM
Waning Crescent, 10% visible
METAR KHYA 302356Z 21006KT 9SM OVC008 22/20 A3005 RMK AO2 SLPNO T02220200 10261 20222 53012

10-Day Weather Forecast

Almanac

Astronomy

Jul. 30, 2016 Rise Set
Actual Time
Civil Twilight
Nautical Twilight
Astronomical Twilight
Moon
Length of Visible Light
Length of Day
Tomorrow will be .
, % of the Moon is Illuminated

Today's Extremes

State Highs State Lows

Community

WunderPhotos

Upload Photos

1,928,682 photos uploaded!

WunderBlog® & News

Nearby

Air Quality

  Air Quality AQ Index Pollutant
Not available.

Snow Depth

Station Depth Elevation

Earthquake Activity

City Distance Mag. Time & Date
Minimum magnitude displayed is 2.5.

Coastal Water Temperatures

Place Temperature

Stations

Nearby Weather Stations

Station Location Temp. Windchill Dew Point Humidity Wind Precip. Elev Updated Type
                   

Watches & Warnings

There are currently no watches in effect.